sensor_id;sensor_type;location;lat;lon;timestamp;P1;durP1;ratioP1;P2;durP2;ratioP2
2992;SDS011;1506;48.932;9.478;2022-08-20T00:01:03;24.90;;;17.50;;
2992;SDS011;1506;48.932;9.478;2022-08-20T00:03:35;28.93;;;18.60;;
2992;SDS011;1506;48.932;9.478;2022-08-20T00:06:06;22.77;;;17.43;;
2992;SDS011;1506;48.932;9.478;2022-08-20T00:08:52;21.47;;;16.40;;
2992;SDS011;1506;48.932;9.478;2022-08-20T00:11:22;24.60;;;17.30;;
2992;SDS011;1506;48.932;9.478;2022-08-20T00:13:51;22.57;;;16.60;;
2992;SDS011;1506;48.932;9.478;2022-08-20T00:16:21;21.07;;;16.37;;
2992;SDS011;1506;48.932;9.478;2022-08-20T00:18:50;23.87;;;17.47;;
2992;SDS011;1506;48.932;9.478;2022-08-20T00:21:18;15.53;;;13.80;;
2992;SDS011;1506;48.932;9.478;2022-08-20T00:23:49;21.27;;;16.40;;
2992;SDS011;1506;48.932;9.478;2022-08-20T00:26:17;18.33;;;15.23;;
2992;SDS011;1506;48.932;9.478;2022-08-20T00:28:46;17.60;;;13.67;;
2992;SDS011;1506;48.932;9.478;2022-08-20T00:31:15;17.30;;;14.17;;
2992;SDS011;1506;48.932;9.478;2022-08-20T00:33:44;15.20;;;13.00;;
2992;SDS011;1506;48.932;9.478;2022-08-20T00:36:13;22.20;;;16.10;;
2992;SDS011;1506;48.932;9.478;2022-08-20T00:38:43;23.30;;;15.30;;
2992;SDS011;1506;48.932;9.478;2022-08-20T00:41:17;22.00;;;15.27;;
2992;SDS011;1506;48.932;9.478;2022-08-20T00:43:50;24.80;;;15.70;;
2992;SDS011;1506;48.932;9.478;2022-08-20T00:46:31;18.77;;;15.70;;
2992;SDS011;1506;48.932;9.478;2022-08-20T00:49:00;23.70;;;15.73;;
2992;SDS011;1506;48.932;9.478;2022-08-20T00:51:32;23.80;;;18.20;;
2992;SDS011;1506;48.932;9.478;2022-08-20T00:56:37;32.50;;;17.30;;
2992;SDS011;1506;48.932;9.478;2022-08-20T00:59:07;19.57;;;14.30;;
2992;SDS011;1506;48.932;9.478;2022-08-20T01:01:40;21.27;;;16.07;;
2992;SDS011;1506;48.932;9.478;2022-08-20T01:04:21;19.80;;;14.87;;
2992;SDS011;1506;48.932;9.478;2022-08-20T01:06:50;26.13;;;16.30;;
2992;SDS011;1506;48.932;9.478;2022-08-20T01:09:18;21.37;;;17.00;;
2992;SDS011;1506;48.932;9.478;2022-08-20T01:12:05;26.27;;;17.93;;
2992;SDS011;1506;48.932;9.478;2022-08-20T01:14:33;23.20;;;17.70;;
2992;SDS011;1506;48.932;9.478;2022-08-20T01:17:03;21.50;;;16.53;;
2992;SDS011;1506;48.932;9.478;2022-08-20T01:20:16;28.77;;;17.90;;
2992;SDS011;1506;48.932;9.478;2022-08-20T01:22:37;31.60;;;18.10;;
2992;SDS011;1506;48.932;9.478;2022-08-20T01:28:24;26.70;;;16.50;;
2992;SDS011;1506;48.932;9.478;2022-08-20T01:31:02;27.40;;;17.40;;
2992;SDS011;1506;48.932;9.478;2022-08-20T01:33:42;27.43;;;18.20;;
2992;SDS011;1506;48.932;9.478;2022-08-20T01:36:11;26.73;;;18.40;;
2992;SDS011;1506;48.932;9.478;2022-08-20T01:38:40;32.83;;;20.30;;
2992;SDS011;1506;48.932;9.478;2022-08-20T01:44:22;26.83;;;18.67;;
2992;SDS011;1506;48.932;9.478;2022-08-20T01:46:51;26.60;;;17.83;;
2992;SDS011;1506;48.932;9.478;2022-08-20T01:49:27;22.17;;;16.40;;
2992;SDS011;1506;48.932;9.478;2022-08-20T01:51:58;24.87;;;16.67;;
2992;SDS011;1506;48.932;9.478;2022-08-20T01:54:30;25.33;;;18.63;;
2992;SDS011;1506;48.932;9.478;2022-08-20T01:57:00;22.17;;;16.50;;
2992;SDS011;1506;48.932;9.478;2022-08-20T01:59:32;20.70;;;15.93;;
2992;SDS011;1506;48.932;9.478;2022-08-20T02:01:59;27.70;;;14.30;;
2992;SDS011;1506;48.932;9.478;2022-08-20T02:04:27;20.43;;;13.83;;
2992;SDS011;1506;48.932;9.478;2022-08-20T02:06:56;22.03;;;13.93;;
2992;SDS011;1506;48.932;9.478;2022-08-20T02:09:27;12.00;;;9.97;;
2992;SDS011;1506;48.932;9.478;2022-08-20T02:11:57;17.83;;;12.90;;
2992;SDS011;1506;48.932;9.478;2022-08-20T02:14:26;17.47;;;13.80;;
2992;SDS011;1506;48.932;9.478;2022-08-20T02:16:54;14.10;;;11.67;;
2992;SDS011;1506;48.932;9.478;2022-08-20T02:19:45;14.03;;;11.60;;
2992;SDS011;1506;48.932;9.478;2022-08-20T02:22:17;14.77;;;11.73;;
2992;SDS011;1506;48.932;9.478;2022-08-20T02:24:50;14.43;;;11.37;;
2992;SDS011;1506;48.932;9.478;2022-08-20T02:27:17;11.50;;;10.30;;
2992;SDS011;1506;48.932;9.478;2022-08-20T02:29:45;13.43;;;11.60;;
2992;SDS011;1506;48.932;9.478;2022-08-20T02:32:12;19.30;;;13.20;;
2992;SDS011;1506;48.932;9.478;2022-08-20T02:34:59;13.40;;;11.23;;
2992;SDS011;1506;48.932;9.478;2022-08-20T02:37:29;14.07;;;11.90;;
2992;SDS011;1506;48.932;9.478;2022-08-20T02:39:57;18.10;;;13.90;;
2992;SDS011;1506;48.932;9.478;2022-08-20T02:42:24;19.37;;;12.87;;
2992;SDS011;1506;48.932;9.478;2022-08-20T02:44:51;30.93;;;13.10;;
2992;SDS011;1506;48.932;9.478;2022-08-20T02:47:19;14.60;;;12.60;;
2992;SDS011;1506;48.932;9.478;2022-08-20T02:49:46;13.10;;;11.27;;
2992;SDS011;1506;48.932;9.478;2022-08-20T02:52:13;19.70;;;13.17;;
2992;SDS011;1506;48.932;9.478;2022-08-20T02:54:40;14.20;;;11.33;;
2992;SDS011;1506;48.932;9.478;2022-08-20T02:57:11;16.83;;;11.73;;
2992;SDS011;1506;48.932;9.478;2022-08-20T02:59:40;15.47;;;11.00;;
2992;SDS011;1506;48.932;9.478;2022-08-20T03:02:08;14.17;;;12.03;;
2992;SDS011;1506;48.932;9.478;2022-08-20T03:04:35;16.37;;;12.60;;
2992;SDS011;1506;48.932;9.478;2022-08-20T03:07:03;13.30;;;11.03;;
2992;SDS011;1506;48.932;9.478;2022-08-20T03:09:31;16.03;;;11.90;;
2992;SDS011;1506;48.932;9.478;2022-08-20T03:11:58;14.57;;;11.77;;
2992;SDS011;1506;48.932;9.478;2022-08-20T03:14:26;17.13;;;12.20;;
2992;SDS011;1506;48.932;9.478;2022-08-20T03:16:53;12.70;;;10.33;;
2992;SDS011;1506;48.932;9.478;2022-08-20T03:19:20;10.87;;;8.70;;
2992;SDS011;1506;48.932;9.478;2022-08-20T03:21:48;11.30;;;10.30;;
2992;SDS011;1506;48.932;9.478;2022-08-20T03:24:15;9.20;;;8.27;;
2992;SDS011;1506;48.932;9.478;2022-08-20T03:26:42;11.03;;;9.90;;
2992;SDS011;1506;48.932;9.478;2022-08-20T03:29:10;12.57;;;10.70;;
2992;SDS011;1506;48.932;9.478;2022-08-20T03:31:38;13.33;;;11.03;;
2992;SDS011;1506;48.932;9.478;2022-08-20T03:34:05;12.00;;;9.90;;
2992;SDS011;1506;48.932;9.478;2022-08-20T03:36:32;10.67;;;9.67;;
2992;SDS011;1506;48.932;9.478;2022-08-20T03:39:00;11.13;;;10.03;;
2992;SDS011;1506;48.932;9.478;2022-08-20T03:41:31;10.50;;;9.50;;
2992;SDS011;1506;48.932;9.478;2022-08-20T03:43:58;15.93;;;9.17;;
2992;SDS011;1506;48.932;9.478;2022-08-20T03:46:25;8.83;;;7.93;;
2992;SDS011;1506;48.932;9.478;2022-08-20T03:48:53;7.20;;;6.53;;
2992;SDS011;1506;48.932;9.478;2022-08-20T03:51:27;10.43;;;8.80;;
2992;SDS011;1506;48.932;9.478;2022-08-20T03:53:55;14.50;;;9.13;;
2992;SDS011;1506;48.932;9.478;2022-08-20T03:56:23;11.90;;;10.63;;
2992;SDS011;1506;48.932;9.478;2022-08-20T03:58:50;11.50;;;10.10;;
2992;SDS011;1506;48.932;9.478;2022-08-20T04:01:18;9.93;;;8.93;;
2992;SDS011;1506;48.932;9.478;2022-08-20T04:04:05;11.37;;;10.37;;
2992;SDS011;1506;48.932;9.478;2022-08-20T04:06:38;16.00;;;9.97;;
2992;SDS011;1506;48.932;9.478;2022-08-20T04:09:07;10.07;;;9.07;;
2992;SDS011;1506;48.932;9.478;2022-08-20T04:11:37;11.00;;;9.60;;
2992;SDS011;1506;48.932;9.478;2022-08-20T04:14:06;13.37;;;9.13;;
2992;SDS011;1506;48.932;9.478;2022-08-20T04:16:36;9.20;;;8.30;;
2992;SDS011;1506;48.932;9.478;2022-08-20T04:19:05;8.30;;;7.60;;
2992;SDS011;1506;48.932;9.478;2022-08-20T04:21:34;9.17;;;8.23;;
2992;SDS011;1506;48.932;9.478;2022-08-20T04:24:02;7.73;;;7.13;;
2992;SDS011;1506;48.932;9.478;2022-08-20T04:26:31;8.27;;;7.40;;
2992;SDS011;1506;48.932;9.478;2022-08-20T04:29:00;7.85;;;7.25;;
2992;SDS011;1506;48.932;9.478;2022-08-20T04:31:28;8.43;;;7.50;;
2992;SDS011;1506;48.932;9.478;2022-08-20T04:34:02;8.57;;;7.80;;
2992;SDS011;1506;48.932;9.478;2022-08-20T04:36:33;17.87;;;12.27;;
2992;SDS011;1506;48.932;9.478;2022-08-20T04:39:00;92.97;;;35.70;;
2992;SDS011;1506;48.932;9.478;2022-08-20T04:41:27;44.10;;;19.00;;
2992;SDS011;1506;48.932;9.478;2022-08-20T04:43:55;43.00;;;20.13;;
2992;SDS011;1506;48.932;9.478;2022-08-20T04:46:24;32.70;;;15.53;;
2992;SDS011;1506;48.932;9.478;2022-08-20T04:48:54;13.90;;;10.63;;
2992;SDS011;1506;48.932;9.478;2022-08-20T04:51:22;12.70;;;8.00;;
2992;SDS011;1506;48.932;9.478;2022-08-20T04:53:50;6.10;;;5.60;;
2992;SDS011;1506;48.932;9.478;2022-08-20T04:56:20;7.87;;;7.13;;
2992;SDS011;1506;48.932;9.478;2022-08-20T04:58:56;10.23;;;8.10;;
2992;SDS011;1506;48.932;9.478;2022-08-20T05:01:26;5.97;;;5.67;;
2992;SDS011;1506;48.932;9.478;2022-08-20T05:03:54;6.50;;;6.10;;
2992;SDS011;1506;48.932;9.478;2022-08-20T05:06:28;8.20;;;7.50;;
2992;SDS011;1506;48.932;9.478;2022-08-20T05:08:57;10.63;;;9.33;;
2992;SDS011;1506;48.932;9.478;2022-08-20T05:11:26;10.17;;;9.27;;
2992;SDS011;1506;48.932;9.478;2022-08-20T05:14:02;7.63;;;6.93;;
2992;SDS011;1506;48.932;9.478;2022-08-20T05:16:35;6.60;;;5.97;;
2992;SDS011;1506;48.932;9.478;2022-08-20T05:19:08;5.13;;;4.73;;
2992;SDS011;1506;48.932;9.478;2022-08-20T05:21:38;11.33;;;5.30;;
2992;SDS011;1506;48.932;9.478;2022-08-20T05:24:06;7.83;;;7.10;;
2992;SDS011;1506;48.932;9.478;2022-08-20T05:26:33;8.10;;;7.30;;
2992;SDS011;1506;48.932;9.478;2022-08-20T05:29:01;7.57;;;6.87;;
2992;SDS011;1506;48.932;9.478;2022-08-20T05:31:30;11.80;;;7.27;;
2992;SDS011;1506;48.932;9.478;2022-08-20T05:34:05;8.83;;;7.00;;
2992;SDS011;1506;48.932;9.478;2022-08-20T05:36:40;7.70;;;7.10;;
2992;SDS011;1506;48.932;9.478;2022-08-20T05:39:14;8.30;;;7.37;;
2992;SDS011;1506;48.932;9.478;2022-08-20T05:41:44;8.30;;;7.03;;
2992;SDS011;1506;48.932;9.478;2022-08-20T05:44:11;7.37;;;6.70;;
2992;SDS011;1506;48.932;9.478;2022-08-20T05:46:42;7.57;;;6.70;;
2992;SDS011;1506;48.932;9.478;2022-08-20T05:49:12;6.53;;;5.73;;
2992;SDS011;1506;48.932;9.478;2022-08-20T05:51:46;10.63;;;6.37;;
2992;SDS011;1506;48.932;9.478;2022-08-20T05:54:14;6.33;;;4.90;;
2992;SDS011;1506;48.932;9.478;2022-08-20T05:56:42;5.70;;;5.30;;
2992;SDS011;1506;48.932;9.478;2022-08-20T05:59:09;6.10;;;5.80;;
2992;SDS011;1506;48.932;9.478;2022-08-20T06:01:39;6.60;;;6.10;;
2992;SDS011;1506;48.932;9.478;2022-08-20T06:04:08;7.07;;;4.50;;
2992;SDS011;1506;48.932;9.478;2022-08-20T06:07:05;5.63;;;5.10;;
2992;SDS011;1506;48.932;9.478;2022-08-20T06:09:34;5.03;;;4.70;;
2992;SDS011;1506;48.932;9.478;2022-08-20T06:12:03;4.63;;;4.30;;
2992;SDS011;1506;48.932;9.478;2022-08-20T06:14:33;4.30;;;4.00;;
2992;SDS011;1506;48.932;9.478;2022-08-20T06:19:40;4.73;;;4.43;;
2992;SDS011;1506;48.932;9.478;2022-08-20T06:22:10;6.90;;;5.07;;
2992;SDS011;1506;48.932;9.478;2022-08-20T06:24:51;7.33;;;4.77;;
2992;SDS011;1506;48.932;9.478;2022-08-20T06:27:19;5.30;;;4.90;;
2992;SDS011;1506;48.932;9.478;2022-08-20T06:29:47;5.60;;;5.20;;
2992;SDS011;1506;48.932;9.478;2022-08-20T06:32:15;4.57;;;4.37;;
2992;SDS011;1506;48.932;9.478;2022-08-20T06:34:54;5.07;;;4.67;;
2992;SDS011;1506;48.932;9.478;2022-08-20T06:37:23;5.10;;;4.80;;
2992;SDS011;1506;48.932;9.478;2022-08-20T06:39:59;4.70;;;4.40;;
2992;SDS011;1506;48.932;9.478;2022-08-20T06:42:31;5.47;;;5.13;;
2992;SDS011;1506;48.932;9.478;2022-08-20T06:44:58;5.50;;;5.20;;
2992;SDS011;1506;48.932;9.478;2022-08-20T06:47:30;5.20;;;4.70;;
2992;SDS011;1506;48.932;9.478;2022-08-20T06:49:58;4.20;;;3.90;;
2992;SDS011;1506;48.932;9.478;2022-08-20T06:52:25;4.20;;;4.00;;
2992;SDS011;1506;48.932;9.478;2022-08-20T06:55:13;7.83;;;4.57;;
2992;SDS011;1506;48.932;9.478;2022-08-20T06:57:41;6.17;;;5.67;;
2992;SDS011;1506;48.932;9.478;2022-08-20T07:00:15;4.50;;;4.20;;
2992;SDS011;1506;48.932;9.478;2022-08-20T07:02:45;4.73;;;4.30;;
2992;SDS011;1506;48.932;9.478;2022-08-20T07:05:13;5.70;;;5.30;;
2992;SDS011;1506;48.932;9.478;2022-08-20T07:07:45;9.43;;;4.70;;
2992;SDS011;1506;48.932;9.478;2022-08-20T07:10:15;5.63;;;5.20;;
2992;SDS011;1506;48.932;9.478;2022-08-20T07:12:44;8.30;;;5.27;;
2992;SDS011;1506;48.932;9.478;2022-08-20T07:15:12;5.70;;;5.20;;
2992;SDS011;1506;48.932;9.478;2022-08-20T07:17:40;5.13;;;4.73;;
2992;SDS011;1506;48.932;9.478;2022-08-20T07:20:08;6.53;;;5.93;;
2992;SDS011;1506;48.932;9.478;2022-08-20T07:22:41;7.83;;;6.43;;
2992;SDS011;1506;48.932;9.478;2022-08-20T07:25:10;9.33;;;5.37;;
2992;SDS011;1506;48.932;9.478;2022-08-20T07:27:40;6.20;;;5.70;;
2992;SDS011;1506;48.932;9.478;2022-08-20T07:30:11;5.60;;;5.20;;
2992;SDS011;1506;48.932;9.478;2022-08-20T07:33:23;6.07;;;5.67;;
2992;SDS011;1506;48.932;9.478;2022-08-20T07:35:54;7.83;;;6.50;;
2992;SDS011;1506;48.932;9.478;2022-08-20T07:38:24;8.27;;;7.00;;
2992;SDS011;1506;48.932;9.478;2022-08-20T07:41:07;6.77;;;6.17;;
2992;SDS011;1506;48.932;9.478;2022-08-20T07:43:39;9.50;;;5.30;;
2992;SDS011;1506;48.932;9.478;2022-08-20T07:46:07;14.40;;;6.50;;
2992;SDS011;1506;48.932;9.478;2022-08-20T07:48:46;12.77;;;6.40;;
2992;SDS011;1506;48.932;9.478;2022-08-20T07:51:16;5.30;;;4.90;;
2992;SDS011;1506;48.932;9.478;2022-08-20T07:53:46;5.93;;;5.57;;
2992;SDS011;1506;48.932;9.478;2022-08-20T07:56:16;8.30;;;6.60;;
2992;SDS011;1506;48.932;9.478;2022-08-20T07:58:48;9.73;;;6.97;;
2992;SDS011;1506;48.932;9.478;2022-08-20T08:01:19;6.90;;;6.23;;
2992;SDS011;1506;48.932;9.478;2022-08-20T08:03:54;6.63;;;6.13;;
2992;SDS011;1506;48.932;9.478;2022-08-20T08:06:23;7.63;;;6.87;;
2992;SDS011;1506;48.932;9.478;2022-08-20T08:09:11;9.60;;;7.47;;
2992;SDS011;1506;48.932;9.478;2022-08-20T08:11:40;20.80;;;7.90;;
2992;SDS011;1506;48.932;9.478;2022-08-20T08:14:18;9.67;;;8.43;;
2992;SDS011;1506;48.932;9.478;2022-08-20T08:16:53;8.83;;;7.83;;
2992;SDS011;1506;48.932;9.478;2022-08-20T08:19:25;8.23;;;7.53;;
2992;SDS011;1506;48.932;9.478;2022-08-20T08:21:54;9.40;;;7.50;;
2992;SDS011;1506;48.932;9.478;2022-08-20T08:24:24;9.03;;;8.13;;
2992;SDS011;1506;48.932;9.478;2022-08-20T08:26:53;9.97;;;8.53;;
2992;SDS011;1506;48.932;9.478;2022-08-20T08:29:21;9.63;;;8.60;;
2992;SDS011;1506;48.932;9.478;2022-08-20T08:31:48;11.63;;;8.83;;
2992;SDS011;1506;48.932;9.478;2022-08-20T08:34:15;8.80;;;8.00;;
2992;SDS011;1506;48.932;9.478;2022-08-20T08:36:42;9.13;;;8.10;;
2992;SDS011;1506;48.932;9.478;2022-08-20T08:39:09;12.23;;;8.30;;
2992;SDS011;1506;48.932;9.478;2022-08-20T08:41:39;9.57;;;8.60;;
2992;SDS011;1506;48.932;9.478;2022-08-20T08:44:20;9.20;;;8.13;;
2992;SDS011;1506;48.932;9.478;2022-08-20T08:46:55;10.53;;;8.13;;
2992;SDS011;1506;48.932;9.478;2022-08-20T08:49:30;9.30;;;8.40;;
2992;SDS011;1506;48.932;9.478;2022-08-20T08:52:10;15.90;;;7.57;;
2992;SDS011;1506;48.932;9.478;2022-08-20T08:54:49;7.50;;;7.00;;
2992;SDS011;1506;48.932;9.478;2022-08-20T08:57:20;6.93;;;6.20;;
2992;SDS011;1506;48.932;9.478;2022-08-20T08:59:52;6.23;;;5.93;;
2992;SDS011;1506;48.932;9.478;2022-08-20T09:02:30;6.13;;;5.70;;
2992;SDS011;1506;48.932;9.478;2022-08-20T09:05:01;6.47;;;5.97;;
2992;SDS011;1506;48.932;9.478;2022-08-20T09:07:40;5.60;;;5.10;;
2992;SDS011;1506;48.932;9.478;2022-08-20T09:10:10;4.73;;;4.43;;
2992;SDS011;1506;48.932;9.478;2022-08-20T09:12:38;5.77;;;4.83;;
2992;SDS011;1506;48.932;9.478;2022-08-20T09:15:11;4.73;;;4.43;;
2992;SDS011;1506;48.932;9.478;2022-08-20T09:17:40;7.23;;;6.33;;
2992;SDS011;1506;48.932;9.478;2022-08-20T09:20:07;6.33;;;5.90;;
2992;SDS011;1506;48.932;9.478;2022-08-20T09:22:35;7.87;;;5.87;;
2992;SDS011;1506;48.932;9.478;2022-08-20T09:25:03;5.50;;;5.03;;
2992;SDS011;1506;48.932;9.478;2022-08-20T09:27:30;4.97;;;4.60;;
2992;SDS011;1506;48.932;9.478;2022-08-20T09:29:57;4.40;;;4.00;;
2992;SDS011;1506;48.932;9.478;2022-08-20T09:32:24;5.23;;;4.93;;
2992;SDS011;1506;48.932;9.478;2022-08-20T09:34:52;6.83;;;6.27;;
2992;SDS011;1506;48.932;9.478;2022-08-20T09:37:22;6.20;;;5.50;;
2992;SDS011;1506;48.932;9.478;2022-08-20T09:39:51;6.43;;;5.40;;
2992;SDS011;1506;48.932;9.478;2022-08-20T09:42:21;6.33;;;5.90;;
2992;SDS011;1506;48.932;9.478;2022-08-20T09:45:06;5.30;;;5.00;;
2992;SDS011;1506;48.932;9.478;2022-08-20T09:47:36;6.87;;;6.27;;
2992;SDS011;1506;48.932;9.478;2022-08-20T09:50:22;4.33;;;4.13;;
2992;SDS011;1506;48.932;9.478;2022-08-20T09:52:53;5.10;;;4.60;;
2992;SDS011;1506;48.932;9.478;2022-08-20T09:55:39;5.10;;;4.90;;
2992;SDS011;1506;48.932;9.478;2022-08-20T09:58:28;3.53;;;3.43;;
2992;SDS011;1506;48.932;9.478;2022-08-20T10:01:07;3.47;;;3.27;;
2992;SDS011;1506;48.932;9.478;2022-08-20T10:03:40;2.67;;;2.57;;
2992;SDS011;1506;48.932;9.478;2022-08-20T10:06:08;2.20;;;2.10;;
2992;SDS011;1506;48.932;9.478;2022-08-20T10:08:36;2.60;;;2.50;;
2992;SDS011;1506;48.932;9.478;2022-08-20T10:11:04;2.40;;;2.30;;
2992;SDS011;1506;48.932;9.478;2022-08-20T10:13:31;2.90;;;2.70;;
2992;SDS011;1506;48.932;9.478;2022-08-20T10:15:59;2.50;;;2.30;;
2992;SDS011;1506;48.932;9.478;2022-08-20T10:18:26;1.83;;;1.73;;
2992;SDS011;1506;48.932;9.478;2022-08-20T10:20:53;2.50;;;2.40;;
2992;SDS011;1506;48.932;9.478;2022-08-20T10:23:21;2.90;;;2.03;;
2992;SDS011;1506;48.932;9.478;2022-08-20T10:25:48;4.60;;;2.47;;
2992;SDS011;1506;48.932;9.478;2022-08-20T10:28:16;2.77;;;2.57;;
2992;SDS011;1506;48.932;9.478;2022-08-20T10:30:43;2.77;;;2.67;;
2992;SDS011;1506;48.932;9.478;2022-08-20T10:33:12;2.00;;;1.90;;
2992;SDS011;1506;48.932;9.478;2022-08-20T10:35:40;1.60;;;1.50;;
2992;SDS011;1506;48.932;9.478;2022-08-20T10:38:07;2.30;;;2.03;;
2992;SDS011;1506;48.932;9.478;2022-08-20T10:40:34;1.80;;;1.70;;
2992;SDS011;1506;48.932;9.478;2022-08-20T10:43:02;1.77;;;1.67;;
2992;SDS011;1506;48.932;9.478;2022-08-20T10:45:29;1.70;;;1.60;;
2992;SDS011;1506;48.932;9.478;2022-08-20T10:47:59;1.90;;;1.80;;
2992;SDS011;1506;48.932;9.478;2022-08-20T10:50:27;2.30;;;2.20;;
2992;SDS011;1506;48.932;9.478;2022-08-20T10:52:56;2.57;;;2.47;;
2992;SDS011;1506;48.932;9.478;2022-08-20T10:55:23;2.50;;;2.33;;
2992;SDS011;1506;48.932;9.478;2022-08-20T10:57:50;2.33;;;2.23;;
2992;SDS011;1506;48.932;9.478;2022-08-20T11:00:17;2.17;;;2.07;;
2992;SDS011;1506;48.932;9.478;2022-08-20T11:02:44;2.47;;;2.37;;
2992;SDS011;1506;48.932;9.478;2022-08-20T11:05:12;2.83;;;2.73;;
2992;SDS011;1506;48.932;9.478;2022-08-20T11:07:40;2.97;;;2.87;;
2992;SDS011;1506;48.932;9.478;2022-08-20T11:10:25;2.47;;;2.37;;
2992;SDS011;1506;48.932;9.478;2022-08-20T11:12:54;2.10;;;2.00;;
2992;SDS011;1506;48.932;9.478;2022-08-20T11:15:21;2.80;;;2.60;;
2992;SDS011;1506;48.932;9.478;2022-08-20T11:17:49;9.40;;;2.53;;
2992;SDS011;1506;48.932;9.478;2022-08-20T11:20:17;2.17;;;2.07;;
2992;SDS011;1506;48.932;9.478;2022-08-20T11:22:46;1.60;;;1.50;;
2992;SDS011;1506;48.932;9.478;2022-08-20T11:25:13;3.57;;;1.47;;
2992;SDS011;1506;48.932;9.478;2022-08-20T11:27:41;1.23;;;1.13;;
2992;SDS011;1506;48.932;9.478;2022-08-20T11:30:14;1.43;;;1.33;;
2992;SDS011;1506;48.932;9.478;2022-08-20T11:32:44;1.57;;;1.47;;
2992;SDS011;1506;48.932;9.478;2022-08-20T11:35:11;1.20;;;1.20;;
2992;SDS011;1506;48.932;9.478;2022-08-20T11:37:59;1.10;;;1.10;;
2992;SDS011;1506;48.932;9.478;2022-08-20T11:40:28;1.77;;;1.67;;
2992;SDS011;1506;48.932;9.478;2022-08-20T11:42:56;1.63;;;1.53;;
2992;SDS011;1506;48.932;9.478;2022-08-20T11:45:40;1.57;;;1.47;;
2992;SDS011;1506;48.932;9.478;2022-08-20T11:48:09;4.70;;;2.20;;
2992;SDS011;1506;48.932;9.478;2022-08-20T11:50:36;5.37;;;3.23;;
2992;SDS011;1506;48.932;9.478;2022-08-20T11:53:03;2.97;;;2.77;;
2992;SDS011;1506;48.932;9.478;2022-08-20T11:55:33;2.50;;;2.40;;
2992;SDS011;1506;48.932;9.478;2022-08-20T11:58:00;3.07;;;2.73;;
2992;SDS011;1506;48.932;9.478;2022-08-20T12:00:28;7.20;;;3.80;;
2992;SDS011;1506;48.932;9.478;2022-08-20T12:03:00;4.33;;;3.37;;
2992;SDS011;1506;48.932;9.478;2022-08-20T12:05:30;3.63;;;3.37;;
2992;SDS011;1506;48.932;9.478;2022-08-20T12:08:01;3.50;;;3.30;;
2992;SDS011;1506;48.932;9.478;2022-08-20T12:10:29;4.10;;;3.90;;
2992;SDS011;1506;48.932;9.478;2022-08-20T12:12:57;4.33;;;4.03;;
2992;SDS011;1506;48.932;9.478;2022-08-20T12:15:25;5.60;;;5.20;;
2992;SDS011;1506;48.932;9.478;2022-08-20T12:17:53;5.60;;;5.20;;
2992;SDS011;1506;48.932;9.478;2022-08-20T12:20:21;5.43;;;4.93;;
2992;SDS011;1506;48.932;9.478;2022-08-20T12:22:49;4.30;;;4.10;;
2992;SDS011;1506;48.932;9.478;2022-08-20T12:25:16;3.60;;;3.50;;
2992;SDS011;1506;48.932;9.478;2022-08-20T12:27:44;3.93;;;3.70;;
2992;SDS011;1506;48.932;9.478;2022-08-20T12:30:13;2.70;;;2.57;;
2992;SDS011;1506;48.932;9.478;2022-08-20T12:32:45;3.47;;;3.13;;
2992;SDS011;1506;48.932;9.478;2022-08-20T12:35:13;2.77;;;2.67;;
2992;SDS011;1506;48.932;9.478;2022-08-20T12:37:43;2.97;;;2.87;;
2992;SDS011;1506;48.932;9.478;2022-08-20T12:40:17;2.17;;;2.07;;
2992;SDS011;1506;48.932;9.478;2022-08-20T12:42:59;2.80;;;2.70;;
2992;SDS011;1506;48.932;9.478;2022-08-20T12:45:28;2.57;;;2.47;;
2992;SDS011;1506;48.932;9.478;2022-08-20T12:48:00;2.10;;;2.00;;
2992;SDS011;1506;48.932;9.478;2022-08-20T12:50:33;2.10;;;2.00;;
2992;SDS011;1506;48.932;9.478;2022-08-20T12:53:02;3.37;;;3.17;;
2992;SDS011;1506;48.932;9.478;2022-08-20T12:55:30;3.07;;;2.77;;
2992;SDS011;1506;48.932;9.478;2022-08-20T12:57:59;3.83;;;3.60;;
2992;SDS011;1506;48.932;9.478;2022-08-20T13:00:33;2.70;;;2.60;;
2992;SDS011;1506;48.932;9.478;2022-08-20T13:03:08;3.80;;;3.10;;
2992;SDS011;1506;48.932;9.478;2022-08-20T13:05:38;3.40;;;3.20;;
2992;SDS011;1506;48.932;9.478;2022-08-20T13:08:07;2.77;;;2.57;;
2992;SDS011;1506;48.932;9.478;2022-08-20T13:10:38;2.30;;;2.20;;
2992;SDS011;1506;48.932;9.478;2022-08-20T13:13:13;2.40;;;2.30;;
2992;SDS011;1506;48.932;9.478;2022-08-20T13:15:46;3.40;;;3.30;;
2992;SDS011;1506;48.932;9.478;2022-08-20T13:18:16;2.47;;;2.37;;
2992;SDS011;1506;48.932;9.478;2022-08-20T13:20:43;2.80;;;2.70;;
2992;SDS011;1506;48.932;9.478;2022-08-20T13:23:11;3.53;;;2.83;;
2992;SDS011;1506;48.932;9.478;2022-08-20T13:25:39;2.90;;;2.80;;
2992;SDS011;1506;48.932;9.478;2022-08-20T13:28:06;3.90;;;3.57;;
2992;SDS011;1506;48.932;9.478;2022-08-20T13:30:33;2.10;;;2.00;;
2992;SDS011;1506;48.932;9.478;2022-08-20T13:33:03;5.63;;;2.77;;
2992;SDS011;1506;48.932;9.478;2022-08-20T13:35:30;2.87;;;2.53;;
2992;SDS011;1506;48.932;9.478;2022-08-20T13:37:58;3.00;;;2.90;;
2992;SDS011;1506;48.932;9.478;2022-08-20T13:40:25;3.57;;;3.37;;
2992;SDS011;1506;48.932;9.478;2022-08-20T13:42:53;7.33;;;3.77;;
2992;SDS011;1506;48.932;9.478;2022-08-20T13:45:20;3.90;;;3.70;;
2992;SDS011;1506;48.932;9.478;2022-08-20T13:47:49;4.50;;;3.03;;
2992;SDS011;1506;48.932;9.478;2022-08-20T13:50:20;2.60;;;2.50;;
2992;SDS011;1506;48.932;9.478;2022-08-20T13:52:50;3.57;;;2.80;;
2992;SDS011;1506;48.932;9.478;2022-08-20T13:55:18;2.90;;;2.80;;
2992;SDS011;1506;48.932;9.478;2022-08-20T13:57:48;3.57;;;3.27;;
2992;SDS011;1506;48.932;9.478;2022-08-20T14:00:23;2.77;;;2.67;;
2992;SDS011;1506;48.932;9.478;2022-08-20T14:02:57;2.77;;;2.67;;
2992;SDS011;1506;48.932;9.478;2022-08-20T14:05:26;2.80;;;2.70;;
2992;SDS011;1506;48.932;9.478;2022-08-20T14:07:54;3.43;;;3.13;;
2992;SDS011;1506;48.932;9.478;2022-08-20T14:10:22;2.30;;;2.20;;
2992;SDS011;1506;48.932;9.478;2022-08-20T14:12:56;2.83;;;2.50;;
2992;SDS011;1506;48.932;9.478;2022-08-20T14:15:24;3.10;;;2.80;;
2992;SDS011;1506;48.932;9.478;2022-08-20T14:17:52;2.60;;;2.37;;
2992;SDS011;1506;48.932;9.478;2022-08-20T14:20:22;2.53;;;2.43;;
2992;SDS011;1506;48.932;9.478;2022-08-20T14:22:57;2.80;;;2.60;;
2992;SDS011;1506;48.932;9.478;2022-08-20T14:25:26;2.67;;;2.57;;
2992;SDS011;1506;48.932;9.478;2022-08-20T14:27:54;2.30;;;2.10;;
2992;SDS011;1506;48.932;9.478;2022-08-20T14:30:23;1.77;;;1.67;;
2992;SDS011;1506;48.932;9.478;2022-08-20T14:32:53;2.23;;;1.70;;
2992;SDS011;1506;48.932;9.478;2022-08-20T14:35:22;2.10;;;2.00;;
2992;SDS011;1506;48.932;9.478;2022-08-20T14:37:51;2.97;;;2.87;;
2992;SDS011;1506;48.932;9.478;2022-08-20T14:40:21;2.40;;;2.30;;
2992;SDS011;1506;48.932;9.478;2022-08-20T14:42:49;4.80;;;4.60;;
2992;SDS011;1506;48.932;9.478;2022-08-20T14:45:18;2.93;;;2.83;;
2992;SDS011;1506;48.932;9.478;2022-08-20T14:47:47;2.37;;;2.27;;
2992;SDS011;1506;48.932;9.478;2022-08-20T14:50:27;2.93;;;2.80;;
2992;SDS011;1506;48.932;9.478;2022-08-20T14:52:56;2.10;;;2.00;;
2992;SDS011;1506;48.932;9.478;2022-08-20T14:55:26;3.40;;;2.10;;
2992;SDS011;1506;48.932;9.478;2022-08-20T14:57:55;6.50;;;2.50;;
2992;SDS011;1506;48.932;9.478;2022-08-20T15:00:24;2.13;;;2.00;;
2992;SDS011;1506;48.932;9.478;2022-08-20T15:02:54;2.00;;;1.90;;
2992;SDS011;1506;48.932;9.478;2022-08-20T15:05:21;1.80;;;1.70;;
2992;SDS011;1506;48.932;9.478;2022-08-20T15:07:49;1.80;;;1.70;;
2992;SDS011;1506;48.932;9.478;2022-08-20T15:10:24;1.40;;;1.30;;
2992;SDS011;1506;48.932;9.478;2022-08-20T15:12:54;1.47;;;1.37;;
2992;SDS011;1506;48.932;9.478;2022-08-20T15:15:22;1.50;;;1.40;;
2992;SDS011;1506;48.932;9.478;2022-08-20T15:17:52;1.90;;;1.80;;
2992;SDS011;1506;48.932;9.478;2022-08-20T15:20:22;1.97;;;1.87;;
2992;SDS011;1506;48.932;9.478;2022-08-20T15:22:51;1.63;;;1.53;;
2992;SDS011;1506;48.932;9.478;2022-08-20T15:25:20;2.17;;;1.90;;
2992;SDS011;1506;48.932;9.478;2022-08-20T15:27:49;1.73;;;1.63;;
2992;SDS011;1506;48.932;9.478;2022-08-20T15:30:18;1.77;;;1.67;;
2992;SDS011;1506;48.932;9.478;2022-08-20T15:32:47;1.63;;;1.53;;
2992;SDS011;1506;48.932;9.478;2022-08-20T15:35:24;2.00;;;1.63;;
2992;SDS011;1506;48.932;9.478;2022-08-20T15:37:54;2.63;;;1.70;;
2992;SDS011;1506;48.932;9.478;2022-08-20T15:40:24;1.23;;;1.13;;